createdAt,value
2023-02-09T00:02:20.945Z,-8.59
2023-02-09T00:05:09.909Z,-8.49
2023-02-09T00:07:58.641Z,-8.40
2023-02-09T00:10:49.111Z,-8.47
2023-02-09T00:13:37.981Z,-8.46
2023-02-09T00:16:26.694Z,-8.43
2023-02-09T00:19:15.638Z,-8.46
2023-02-09T00:22:04.406Z,-8.51
2023-02-09T00:24:54.161Z,-8.55
2023-02-09T00:27:44.253Z,-8.57
2023-02-09T00:30:32.947Z,-8.64
2023-02-09T00:33:21.756Z,-8.70
2023-02-09T00:36:12.632Z,-8.78
2023-02-09T00:39:01.570Z,-8.88
2023-02-09T00:42:08.295Z,-8.96
2023-02-09T00:44:58.049Z,-9.04
2023-02-09T00:47:47.055Z,-9.09
2023-02-09T00:50:36.048Z,-9.16
2023-02-09T00:53:24.816Z,-9.25
2023-02-09T00:56:13.863Z,-9.23
2023-02-09T00:59:03.279Z,-9.19
2023-02-09T01:01:52.455Z,-9.15
2023-02-09T01:04:41.213Z,-9.12
2023-02-09T01:07:30.982Z,-9.10
2023-02-09T01:10:20.722Z,-9.08
2023-02-09T01:13:09.492Z,-9.04
2023-02-09T01:15:58.406Z,-9.04
2023-02-09T01:18:48.622Z,-9.11
2023-02-09T01:21:37.671Z,-9.21
2023-02-09T01:24:26.428Z,-9.23
2023-02-09T01:27:15.260Z,-9.28
2023-02-09T01:30:04.767Z,-9.32
2023-02-09T01:32:54.701Z,-9.35
2023-02-09T01:35:43.370Z,-9.39
2023-02-09T01:38:31.958Z,-9.44
2023-02-09T01:41:20.607Z,-9.51
2023-02-09T01:44:12.868Z,-9.56
2023-02-09T01:47:01.530Z,-9.59
2023-02-09T01:49:56.524Z,-9.65
2023-02-09T01:52:45.667Z,-9.71
2023-02-09T01:55:36.328Z,-9.76
2023-02-09T01:58:25.171Z,-9.78
2023-02-09T02:01:14.008Z,-9.81
2023-02-09T02:04:02.808Z,-9.83
2023-02-09T02:06:54.804Z,-9.83
2023-02-09T02:09:43.907Z,-9.87
2023-02-09T02:12:33.996Z,-9.88
2023-02-09T02:16:01.837Z,-9.90
2023-02-09T02:19:12.045Z,-9.91
2023-02-09T02:22:16.790Z,-9.90
2023-02-09T02:25:18.254Z,-10.00
2023-02-09T02:28:28.101Z,-10.03
2023-02-09T02:31:54.388Z,-10.14
2023-02-09T02:34:46.274Z,-10.20
2023-02-09T02:37:37.621Z,-10.24
2023-02-09T02:41:01.684Z,-10.26
2023-02-09T02:44:03.420Z,-10.25
2023-02-09T02:46:57.942Z,-10.23
2023-02-09T02:49:51.797Z,-10.24
2023-02-09T02:52:40.568Z,-10.26
2023-02-09T02:55:30.792Z,-10.29
2023-02-09T02:58:19.763Z,-10.30
2023-02-09T03:01:09.991Z,-10.32
2023-02-09T03:03:58.859Z,-10.36
2023-02-09T03:06:47.488Z,-10.34
2023-02-09T03:09:36.068Z,-10.35
2023-02-09T03:12:49.664Z,-10.36
2023-02-09T03:15:44.892Z,-10.37
2023-02-09T03:19:08.244Z,-10.36
2023-02-09T03:22:04.993Z,-10.37
2023-02-09T03:24:56.956Z,-10.36
2023-02-09T03:27:59.405Z,-10.32
2023-02-09T03:30:49.900Z,-10.31
2023-02-09T03:33:39.010Z,-10.23
2023-02-09T03:36:32.739Z,-10.15
2023-02-09T03:39:21.656Z,-10.10
2023-02-09T03:42:10.391Z,-10.12
2023-02-09T03:44:59.138Z,-10.15
2023-02-09T03:47:49.220Z,-10.18
2023-02-09T03:50:38.869Z,-10.25
2023-02-09T03:53:27.516Z,-10.31
2023-02-09T03:56:16.441Z,-10.36
2023-02-09T03:59:05.552Z,-10.42
2023-02-09T04:01:56.757Z,-10.46
2023-02-09T04:04:45.592Z,-10.52
2023-02-09T04:07:35.105Z,-10.52
2023-02-09T04:10:24.294Z,-10.53
2023-02-09T04:13:13.173Z,-10.57
2023-02-09T04:16:01.852Z,-10.60
2023-02-09T04:18:50.733Z,-10.60
2023-02-09T04:21:39.680Z,-10.60
2023-02-09T04:24:28.561Z,-10.58
2023-02-09T04:27:17.795Z,-10.62
2023-02-09T04:30:07.747Z,-10.62
2023-02-09T04:32:56.954Z,-10.63
2023-02-09T04:35:45.691Z,-10.64
2023-02-09T04:38:34.605Z,-10.65
2023-02-09T04:41:23.303Z,-10.69
2023-02-09T04:44:12.103Z,-10.70
2023-02-09T04:47:00.993Z,-10.71
2023-02-09T04:49:49.781Z,-10.70
2023-02-09T04:52:38.758Z,-10.72
2023-02-09T04:55:27.643Z,-10.72
2023-02-09T04:58:36.487Z,-10.75
2023-02-09T05:01:25.437Z,-10.81
2023-02-09T05:04:14.106Z,-10.92
2023-02-09T05:07:10.241Z,-10.91
2023-02-09T05:09:59.017Z,-10.95
2023-02-09T05:12:49.396Z,-10.95
2023-02-09T05:15:38.003Z,-10.91
2023-02-09T05:18:27.035Z,-10.90
2023-02-09T05:21:15.816Z,-10.96
2023-02-09T05:24:04.819Z,-10.97
2023-02-09T05:26:53.450Z,-10.98
2023-02-09T05:29:42.274Z,-10.95
2023-02-09T05:32:31.255Z,-10.88
2023-02-09T05:35:20.181Z,-10.90
2023-02-09T05:38:08.871Z,-10.88
2023-02-09T05:40:57.695Z,-10.83
2023-02-09T05:43:46.315Z,-10.77
2023-02-09T05:46:35.240Z,-10.72
2023-02-09T05:49:23.997Z,-10.66
2023-02-09T05:52:12.801Z,-10.59
2023-02-09T05:55:01.838Z,-10.52
2023-02-09T05:57:50.616Z,-10.42
2023-02-09T06:00:40.195Z,-10.25
2023-02-09T06:03:28.946Z,-10.09
2023-02-09T06:06:17.650Z,-10.00
2023-02-09T06:09:06.343Z,-9.87
2023-02-09T06:11:56.243Z,-9.72
2023-02-09T06:14:45.736Z,-9.51
2023-02-09T06:17:36.947Z,-9.27
2023-02-09T06:20:25.676Z,-9.05
2023-02-09T06:23:14.285Z,-8.82
2023-02-09T06:26:13.915Z,-8.62
2023-02-09T06:29:02.534Z,-8.38
2023-02-09T06:31:51.501Z,-8.16
2023-02-09T06:34:40.260Z,-7.97
2023-02-09T06:37:29.114Z,-7.77
2023-02-09T06:40:17.883Z,-7.55
2023-02-09T06:43:06.667Z,-7.32
2023-02-09T06:45:55.429Z,-7.19
2023-02-09T06:48:44.566Z,-7.04
2023-02-09T06:51:33.340Z,-6.89
2023-02-09T06:54:23.109Z,-6.71
2023-02-09T06:57:11.878Z,-6.51
2023-02-09T07:00:00.895Z,-6.34
2023-02-09T07:02:49.657Z,-6.13
2023-02-09T07:05:38.350Z,-5.91
2023-02-09T07:08:27.024Z,-5.73
2023-02-09T07:11:18.777Z,-5.56
2023-02-09T07:14:07.490Z,-5.44
2023-02-09T07:16:56.358Z,-5.31
2023-02-09T07:19:45.252Z,-5.14
2023-02-09T07:22:34.190Z,-4.96
2023-02-09T07:25:22.987Z,-4.79
2023-02-09T07:28:11.882Z,-4.67
2023-02-09T07:31:05.856Z,-4.53
2023-02-09T07:33:55.858Z,-4.44
2023-02-09T07:36:47.648Z,-4.28
2023-02-09T07:39:36.974Z,-4.13
2023-02-09T07:42:26.302Z,-3.99
2023-02-09T07:45:20.722Z,-3.82
2023-02-09T07:48:10.311Z,-3.67
2023-02-09T07:50:59.364Z,-3.55
2023-02-09T07:53:48.128Z,-3.39
2023-02-09T07:56:36.835Z,-3.19
2023-02-09T07:59:25.415Z,-2.94
2023-02-09T08:02:18.888Z,-2.77
2023-02-09T08:05:14.475Z,-2.63
2023-02-09T08:08:04.285Z,-2.49
2023-02-09T08:10:53.440Z,-2.29
2023-02-09T08:13:42.716Z,-2.02
2023-02-09T08:16:33.243Z,-1.86
2023-02-09T08:19:22.780Z,-1.67
2023-02-09T08:22:11.550Z,-1.51
2023-02-09T08:25:00.246Z,-1.43
2023-02-09T08:27:48.973Z,-1.38
2023-02-09T08:30:37.595Z,-1.20
2023-02-09T08:33:29.106Z,-1.07
2023-02-09T08:36:18.995Z,-0.96
2023-02-09T08:39:07.705Z,-0.82
2023-02-09T08:41:56.455Z,-0.78
2023-02-09T08:44:45.218Z,-0.78
2023-02-09T08:47:33.895Z,-0.69
2023-02-09T08:50:22.962Z,-0.60
2023-02-09T08:53:11.709Z,-0.50
2023-02-09T08:56:00.319Z,-0.39
2023-02-09T08:58:49.506Z,-0.32
2023-02-09T09:01:40.503Z,-0.33
2023-02-09T09:04:29.666Z,-0.15
2023-02-09T09:07:18.533Z,0.08
2023-02-09T09:10:10.911Z,0.17
2023-02-09T09:12:59.610Z,0.33
2023-02-09T09:15:49.366Z,0.39
2023-02-09T09:18:38.366Z,0.40
2023-02-09T09:21:26.990Z,0.50
2023-02-09T09:24:16.255Z,0.58
2023-02-09T09:27:04.919Z,0.59
2023-02-09T09:29:53.703Z,0.53
2023-02-09T09:32:43.061Z,0.56
2023-02-09T09:35:32.660Z,0.52
2023-02-09T09:38:21.352Z,0.51
2023-02-09T09:41:39.279Z,0.49
2023-02-09T09:44:41.247Z,0.51
2023-02-09T09:47:36.455Z,0.52
2023-02-09T09:50:28.057Z,0.52
2023-02-09T09:53:33.315Z,0.54
2023-02-09T09:56:22.304Z,0.62
2023-02-09T09:59:19.585Z,0.73
2023-02-09T10:02:34.757Z,0.84
2023-02-09T10:05:29.011Z,0.89
2023-02-09T10:08:20.918Z,0.86
2023-02-09T10:11:14.403Z,0.82
2023-02-09T10:14:03.610Z,0.91
2023-02-09T10:16:52.317Z,0.94
2023-02-09T10:19:41.146Z,1.05
2023-02-09T10:22:30.306Z,1.19
2023-02-09T10:25:50.036Z,1.30
2023-02-09T10:28:48.082Z,1.43
2023-02-09T10:31:44.827Z,1.54
2023-02-09T10:34:42.812Z,1.51
2023-02-09T10:37:34.669Z,1.42
2023-02-09T10:40:28.523Z,1.36
2023-02-09T10:43:21.176Z,1.43
2023-02-09T10:46:16.820Z,1.67
2023-02-09T10:49:26.151Z,1.74
2023-02-09T10:52:16.093Z,1.89
2023-02-09T10:55:30.291Z,1.87
2023-02-09T10:58:24.212Z,2.00
2023-02-09T11:01:17.132Z,2.07
2023-02-09T11:04:18.520Z,2.16
2023-02-09T11:07:14.900Z,2.30
2023-02-09T11:10:05.245Z,2.41
2023-02-09T11:12:54.134Z,2.45
2023-02-09T11:15:47.467Z,2.44
2023-02-09T11:18:36.714Z,2.40
2023-02-09T11:21:40.571Z,2.48
2023-02-09T11:25:03.344Z,2.45
2023-02-09T11:28:14.017Z,2.33
2023-02-09T11:31:29.161Z,2.36
2023-02-09T11:35:06.312Z,2.34
2023-02-09T11:38:03.591Z,2.47
2023-02-09T11:40:53.868Z,2.54
2023-02-09T11:43:42.790Z,2.55
2023-02-09T11:46:38.310Z,2.46
2023-02-09T11:49:27.043Z,2.37
2023-02-09T11:52:20.517Z,2.29
2023-02-09T11:55:23.127Z,2.30
2023-02-09T11:58:25.481Z,2.34
2023-02-09T12:01:41.294Z,2.34
2023-02-09T12:04:49.649Z,2.34
2023-02-09T12:07:43.906Z,2.38
2023-02-09T12:10:41.664Z,2.48
2023-02-09T12:13:35.100Z,2.58
2023-02-09T12:16:32.062Z,2.68
2023-02-09T12:19:33.058Z,2.77
2023-02-09T12:22:34.152Z,2.79
2023-02-09T12:25:45.368Z,2.85
2023-02-09T12:28:34.145Z,2.93
2023-02-09T12:31:25.165Z,2.94
2023-02-09T12:34:27.838Z,2.97
2023-02-09T12:37:28.404Z,2.99
2023-02-09T12:40:22.639Z,2.93
2023-02-09T12:43:13.894Z,2.84
2023-02-09T12:46:14.416Z,2.76
2023-02-09T12:49:12.326Z,2.71
2023-02-09T12:52:01.081Z,2.71
2023-02-09T12:54:55.526Z,2.59
2023-02-09T12:57:49.466Z,2.54
2023-02-09T13:00:41.040Z,2.49
2023-02-09T13:03:30.183Z,2.42
2023-02-09T13:06:28.282Z,2.41
2023-02-09T13:09:31.119Z,2.39
2023-02-09T13:12:21.638Z,2.42
2023-02-09T13:15:15.093Z,2.40
2023-02-09T13:18:14.989Z,2.39
2023-02-09T13:21:41.025Z,2.38
2023-02-09T13:24:49.262Z,2.32
2023-02-09T13:27:48.610Z,2.24
2023-02-09T13:30:37.897Z,2.13
2023-02-09T13:33:41.498Z,2.05
2023-02-09T13:36:45.730Z,2.01
2023-02-09T13:39:38.813Z,2.01
2023-02-09T13:42:29.751Z,1.92
2023-02-09T13:45:19.122Z,1.86
2023-02-09T13:48:15.148Z,1.85
2023-02-09T13:51:24.140Z,1.76
2023-02-09T13:54:20.506Z,1.73
2023-02-09T13:57:36.024Z,1.67
2023-02-09T14:00:29.882Z,1.64
2023-02-09T14:03:26.662Z,1.61
2023-02-09T14:06:19.197Z,1.65
2023-02-09T14:09:13.737Z,1.64
2023-02-09T14:12:03.847Z,1.58
2023-02-09T14:15:14.197Z,1.52
2023-02-09T14:18:03.309Z,1.50
2023-02-09T14:20:59.822Z,1.48
2023-02-09T14:24:03.543Z,1.44
2023-02-09T14:26:59.430Z,1.39
2023-02-09T14:29:48.593Z,1.28
2023-02-09T14:32:40.414Z,1.21
2023-02-09T14:35:39.573Z,1.15
2023-02-09T14:38:39.421Z,1.10
2023-02-09T14:41:32.177Z,1.03
2023-02-09T14:44:21.363Z,0.95
2023-02-09T14:47:37.419Z,0.87
2023-02-09T14:50:26.315Z,0.78
2023-02-09T14:53:15.997Z,0.70
2023-02-09T14:56:05.333Z,0.64
2023-02-09T14:58:54.283Z,0.54
2023-02-09T15:01:43.630Z,0.45
2023-02-09T15:04:32.380Z,0.39
2023-02-09T15:07:29.815Z,0.32
2023-02-09T15:10:27.934Z,0.23
2023-02-09T15:13:19.634Z,0.09
2023-02-09T15:16:09.037Z,0.03
2023-02-09T15:18:57.836Z,-0.04
2023-02-09T15:21:58.750Z,-0.13
2023-02-09T15:24:54.779Z,-0.22
2023-02-09T15:27:51.930Z,-0.25
2023-02-09T15:30:40.896Z,-0.33
2023-02-09T15:33:29.778Z,-0.41
2023-02-09T15:36:19.173Z,-0.49
2023-02-09T15:39:14.941Z,-0.58
2023-02-09T15:42:27.222Z,-0.66
2023-02-09T15:45:34.457Z,-0.75
2023-02-09T15:48:23.157Z,-0.81
2023-02-09T15:51:11.966Z,-0.90
2023-02-09T15:54:02.120Z,-1.00
2023-02-09T15:56:50.888Z,-1.07
2023-02-09T15:59:39.578Z,-1.21
2023-02-09T16:02:28.379Z,-1.25
2023-02-09T16:05:18.335Z,-1.23
2023-02-09T16:08:13.506Z,-1.29
2023-02-09T16:11:02.186Z,-1.38
2023-02-09T16:13:51.625Z,-1.46
2023-02-09T16:16:40.462Z,-1.49
2023-02-09T16:19:29.379Z,-1.57
2023-02-09T16:22:22.735Z,-1.65
2023-02-09T16:25:22.208Z,-1.65
2023-02-09T16:28:10.999Z,-1.64
2023-02-09T16:31:00.658Z,-1.67
2023-02-09T16:33:51.296Z,-1.68
2023-02-09T16:36:39.961Z,-1.68
2023-02-09T16:39:30.057Z,-1.70
2023-02-09T16:42:18.891Z,-1.80
2023-02-09T16:45:12.024Z,-1.92
2023-02-09T16:48:00.626Z,-1.96
2023-02-09T16:50:53.170Z,-2.00
2023-02-09T16:53:48.833Z,-2.05
2023-02-09T16:56:52.643Z,-2.07
2023-02-09T16:59:43.685Z,-2.11
2023-02-09T17:02:39.357Z,-2.14
2023-02-09T17:05:29.788Z,-2.16
2023-02-09T17:08:20.470Z,-2.17
2023-02-09T17:11:09.892Z,-2.18
2023-02-09T17:13:58.569Z,-2.18
2023-02-09T17:16:49.740Z,-2.23
2023-02-09T17:19:47.229Z,-2.23
2023-02-09T17:22:37.098Z,-2.25
2023-02-09T17:25:26.319Z,-2.26
2023-02-09T17:28:15.118Z,-2.29
2023-02-09T17:31:04.366Z,-2.28
2023-02-09T17:33:56.997Z,-2.32
2023-02-09T17:36:46.085Z,-2.34
2023-02-09T17:39:34.817Z,-2.38
2023-02-09T17:42:23.553Z,-2.37
2023-02-09T17:45:21.815Z,-2.37
2023-02-09T17:48:12.254Z,-2.41
2023-02-09T17:51:02.790Z,-2.43
2023-02-09T17:53:51.561Z,-2.48
2023-02-09T17:56:40.511Z,-2.51
2023-02-09T17:59:29.301Z,-2.61
2023-02-09T18:02:18.254Z,-2.68
2023-02-09T18:05:07.310Z,-2.71
2023-02-09T18:07:57.156Z,-2.77
2023-02-09T18:10:46.564Z,-2.78
2023-02-09T18:13:35.884Z,-2.80
2023-02-09T18:16:26.529Z,-2.82
2023-02-09T18:19:16.060Z,-2.84
2023-02-09T18:22:07.647Z,-2.88
2023-02-09T18:25:00.214Z,-2.96
2023-02-09T18:27:51.587Z,-2.96
2023-02-09T18:30:40.767Z,-3.03
2023-02-09T18:33:29.890Z,-3.09
2023-02-09T18:36:18.447Z,-3.10
2023-02-09T18:39:07.042Z,-3.11
2023-02-09T18:41:55.903Z,-3.18
2023-02-09T18:44:46.178Z,-3.22
2023-02-09T18:47:37.373Z,-3.28
2023-02-09T18:50:28.693Z,-3.38
2023-02-09T18:53:21.283Z,-3.36
2023-02-09T18:56:17.025Z,-3.45
2023-02-09T18:59:05.887Z,-3.43
2023-02-09T19:01:54.575Z,-3.44
2023-02-09T19:04:43.858Z,-3.46
2023-02-09T19:07:35.838Z,-3.44
2023-02-09T19:10:24.806Z,-3.35
2023-02-09T19:13:15.417Z,-3.32
2023-02-09T19:16:04.682Z,-3.29
2023-02-09T19:18:53.934Z,-3.28
2023-02-09T19:21:42.680Z,-3.21
2023-02-09T19:24:32.237Z,-3.17
2023-02-09T19:27:20.842Z,-3.15
2023-02-09T19:30:13.891Z,-3.09
2023-02-09T19:33:02.876Z,-3.00
2023-02-09T19:35:58.872Z,-2.95
2023-02-09T19:38:47.393Z,-2.93
2023-02-09T19:41:37.304Z,-2.93
2023-02-09T19:44:27.807Z,-2.89
2023-02-09T19:47:16.950Z,-2.89
2023-02-09T19:50:06.663Z,-2.93
2023-02-09T19:52:55.818Z,-2.92
2023-02-09T19:55:51.262Z,-2.85
2023-02-09T19:58:40.106Z,-2.84
2023-02-09T20:01:31.357Z,-2.84
2023-02-09T20:04:22.893Z,-2.84
2023-02-09T20:07:12.117Z,-2.86
2023-02-09T20:10:01.187Z,-2.84
2023-02-09T20:12:50.399Z,-2.93
2023-02-09T20:15:42.104Z,-3.05
2023-02-09T20:18:30.887Z,-3.07
2023-02-09T20:21:21.127Z,-3.10
2023-02-09T20:24:12.003Z,-3.14
2023-02-09T20:27:00.735Z,-3.17
2023-02-09T20:29:49.836Z,-3.19
2023-02-09T20:32:39.179Z,-3.20
2023-02-09T20:35:27.899Z,-3.24
2023-02-09T20:38:16.542Z,-3.43
2023-02-09T20:41:12.926Z,-3.49
2023-02-09T20:44:20.492Z,-3.54
2023-02-09T20:47:09.122Z,-3.63
2023-02-09T20:50:00.025Z,-3.70
2023-02-09T20:52:49.173Z,-3.69
2023-02-09T20:55:37.903Z,-3.81
2023-02-09T20:58:26.674Z,-3.92
2023-02-09T21:01:15.858Z,-4.06
2023-02-09T21:04:06.482Z,-4.09
2023-02-09T21:06:57.777Z,-4.17
2023-02-09T21:09:47.792Z,-4.27
2023-02-09T21:12:36.908Z,-4.33
2023-02-09T21:15:25.954Z,-4.34
2023-02-09T21:18:17.729Z,-4.39
2023-02-09T21:21:13.341Z,-4.48
2023-02-09T21:24:02.154Z,-4.42
2023-02-09T21:26:51.021Z,-4.44
2023-02-09T21:29:40.022Z,-4.55
2023-02-09T21:32:28.951Z,-4.63
2023-02-09T21:35:17.491Z,-4.71
2023-02-09T21:38:06.246Z,-4.80
2023-02-09T21:40:54.957Z,-4.85
2023-02-09T21:43:47.159Z,-4.97
2023-02-09T21:46:36.754Z,-5.04
2023-02-09T21:49:25.467Z,-5.09
2023-02-09T21:52:14.081Z,-5.13
2023-02-09T21:55:03.571Z,-5.13
2023-02-09T21:57:52.509Z,-5.21
2023-02-09T22:00:41.167Z,-5.27
2023-02-09T22:03:29.938Z,-5.26
2023-02-09T22:06:18.558Z,-5.26
2023-02-09T22:09:09.117Z,-5.34
2023-02-09T22:11:57.655Z,-5.43
2023-02-09T22:14:46.329Z,-5.48
2023-02-09T22:17:36.840Z,-5.54
2023-02-09T22:20:25.395Z,-5.59
2023-02-09T22:23:14.136Z,-5.60
2023-02-09T22:26:03.861Z,-5.59
2023-02-09T22:28:52.460Z,-5.64
2023-02-09T22:31:43.652Z,-5.58
2023-02-09T22:34:32.267Z,-5.61
2023-02-09T22:37:20.853Z,-5.63
2023-02-09T22:40:10.068Z,-5.71
2023-02-09T22:42:59.902Z,-5.82
2023-02-09T22:45:55.193Z,-5.90
2023-02-09T22:48:44.060Z,-6.00
2023-02-09T22:51:33.405Z,-6.11
2023-02-09T22:54:22.684Z,-6.15
2023-02-09T22:57:11.301Z,-6.26
2023-02-09T23:00:00.150Z,-6.30
2023-02-09T23:02:49.036Z,-6.33
2023-02-09T23:05:37.694Z,-6.32
2023-02-09T23:08:26.817Z,-6.43
2023-02-09T23:11:16.749Z,-6.51
2023-02-09T23:14:10.537Z,-6.48
2023-02-09T23:17:00.551Z,-6.63
2023-02-09T23:19:49.661Z,-6.68
2023-02-09T23:22:38.475Z,-6.80
2023-02-09T23:25:28.457Z,-6.80
2023-02-09T23:28:17.241Z,-6.86
2023-02-09T23:31:07.005Z,-6.93
2023-02-09T23:33:55.847Z,-6.98
2023-02-09T23:36:44.714Z,-7.03
2023-02-09T23:39:33.312Z,-7.13
2023-02-09T23:42:23.412Z,-7.16
2023-02-09T23:45:11.967Z,-7.15
2023-02-09T23:48:00.641Z,-7.15
2023-02-09T23:50:49.864Z,-7.18
2023-02-09T23:53:38.591Z,-7.26
2023-02-09T23:56:29.879Z,-7.38
2023-02-09T23:59:19.025Z,-7.45
